sensor_id;sensor_type;location;lat;lon;timestamp;P1;durP1;ratioP1;P2;durP2;ratioP2
54263;SDS011;40178;53.042;6.406;2024-02-26T00:02:17;23.15;;;12.60;;
54263;SDS011;40178;53.042;6.406;2024-02-26T00:04:43;24.20;;;13.00;;
54263;SDS011;40178;53.042;6.406;2024-02-26T00:07:09;25.92;;;13.55;;
54263;SDS011;40178;53.042;6.406;2024-02-26T00:09:34;23.35;;;12.27;;
54263;SDS011;40178;53.042;6.406;2024-02-26T00:12:02;23.52;;;13.02;;
54263;SDS011;40178;53.042;6.406;2024-02-26T00:14:29;26.48;;;14.27;;
54263;SDS011;40178;53.042;6.406;2024-02-26T00:16:55;24.70;;;12.93;;
54263;SDS011;40178;53.042;6.406;2024-02-26T00:19:21;24.00;;;12.43;;
54263;SDS011;40178;53.042;6.406;2024-02-26T00:21:46;25.80;;;13.10;;
54263;SDS011;40178;53.042;6.406;2024-02-26T00:24:12;22.73;;;12.00;;
54263;SDS011;40178;53.042;6.406;2024-02-26T00:26:38;24.20;;;12.40;;
54263;SDS011;40178;53.042;6.406;2024-02-26T00:29:03;22.80;;;12.52;;
54263;SDS011;40178;53.042;6.406;2024-02-26T00:31:29;26.33;;;13.57;;
54263;SDS011;40178;53.042;6.406;2024-02-26T00:33:55;23.85;;;12.30;;
54263;SDS011;40178;53.042;6.406;2024-02-26T00:36:21;26.30;;;14.30;;
54263;SDS011;40178;53.042;6.406;2024-02-26T00:38:46;25.67;;;12.68;;
54263;SDS011;40178;53.042;6.406;2024-02-26T00:41:16;23.58;;;12.50;;
54263;SDS011;40178;53.042;6.406;2024-02-26T00:43:42;24.42;;;13.45;;
54263;SDS011;40178;53.042;6.406;2024-02-26T00:46:08;27.75;;;13.90;;
54263;SDS011;40178;53.042;6.406;2024-02-26T00:48:33;28.05;;;14.82;;
54263;SDS011;40178;53.042;6.406;2024-02-26T00:50:59;26.48;;;13.95;;
54263;SDS011;40178;53.042;6.406;2024-02-26T00:53:24;26.85;;;14.05;;
54263;SDS011;40178;53.042;6.406;2024-02-26T00:55:50;27.63;;;15.32;;
54263;SDS011;40178;53.042;6.406;2024-02-26T00:58:16;29.77;;;15.98;;
54263;SDS011;40178;53.042;6.406;2024-02-26T01:00:41;33.00;;;16.98;;
54263;SDS011;40178;53.042;6.406;2024-02-26T01:03:07;32.15;;;16.33;;
54263;SDS011;40178;53.042;6.406;2024-02-26T01:05:34;30.05;;;15.98;;
54263;SDS011;40178;53.042;6.406;2024-02-26T01:08:01;37.17;;;17.50;;
54263;SDS011;40178;53.042;6.406;2024-02-26T01:10:27;37.40;;;19.67;;
54263;SDS011;40178;53.042;6.406;2024-02-26T01:12:53;37.97;;;19.02;;
54263;SDS011;40178;53.042;6.406;2024-02-26T01:15:19;37.38;;;19.40;;
54263;SDS011;40178;53.042;6.406;2024-02-26T01:17:47;34.92;;;17.80;;
54263;SDS011;40178;53.042;6.406;2024-02-26T01:20:12;37.75;;;19.15;;
54263;SDS011;40178;53.042;6.406;2024-02-26T01:22:38;41.83;;;20.02;;
54263;SDS011;40178;53.042;6.406;2024-02-26T01:25:05;40.05;;;19.55;;
54263;SDS011;40178;53.042;6.406;2024-02-26T01:27:32;43.60;;;20.40;;
54263;SDS011;40178;53.042;6.406;2024-02-26T01:29:58;39.90;;;20.48;;
54263;SDS011;40178;53.042;6.406;2024-02-26T01:32:23;42.13;;;20.55;;
54263;SDS011;40178;53.042;6.406;2024-02-26T01:34:49;44.33;;;21.35;;
54263;SDS011;40178;53.042;6.406;2024-02-26T01:37:15;41.05;;;20.58;;
54263;SDS011;40178;53.042;6.406;2024-02-26T01:39:40;39.33;;;19.70;;
54263;SDS011;40178;53.042;6.406;2024-02-26T01:42:07;39.40;;;20.90;;
54263;SDS011;40178;53.042;6.406;2024-02-26T01:44:32;42.42;;;20.23;;
54263;SDS011;40178;53.042;6.406;2024-02-26T01:46:58;43.03;;;20.90;;
54263;SDS011;40178;53.042;6.406;2024-02-26T01:49:26;45.45;;;21.42;;
54263;SDS011;40178;53.042;6.406;2024-02-26T01:51:53;47.95;;;21.60;;
54263;SDS011;40178;53.042;6.406;2024-02-26T01:54:20;36.55;;;19.92;;
54263;SDS011;40178;53.042;6.406;2024-02-26T01:56:46;40.03;;;20.65;;
54263;SDS011;40178;53.042;6.406;2024-02-26T01:59:12;41.63;;;20.85;;
54263;SDS011;40178;53.042;6.406;2024-02-26T02:01:38;39.22;;;20.30;;
54263;SDS011;40178;53.042;6.406;2024-02-26T02:04:06;41.10;;;21.45;;
54263;SDS011;40178;53.042;6.406;2024-02-26T02:06:31;37.65;;;19.67;;
54263;SDS011;40178;53.042;6.406;2024-02-26T02:08:58;41.83;;;20.98;;
54263;SDS011;40178;53.042;6.406;2024-02-26T02:11:25;33.50;;;18.13;;
54263;SDS011;40178;53.042;6.406;2024-02-26T02:13:51;41.40;;;19.88;;
54263;SDS011;40178;53.042;6.406;2024-02-26T02:16:16;40.65;;;19.10;;
54263;SDS011;40178;53.042;6.406;2024-02-26T02:18:42;35.00;;;18.45;;
54263;SDS011;40178;53.042;6.406;2024-02-26T02:21:08;34.05;;;18.42;;
54263;SDS011;40178;53.042;6.406;2024-02-26T02:23:33;37.22;;;19.17;;
54263;SDS011;40178;53.042;6.406;2024-02-26T02:25:59;34.35;;;18.70;;
54263;SDS011;40178;53.042;6.406;2024-02-26T02:28:25;36.78;;;19.48;;
54263;SDS011;40178;53.042;6.406;2024-02-26T02:30:52;33.88;;;17.90;;
54263;SDS011;40178;53.042;6.406;2024-02-26T02:33:18;36.60;;;18.20;;
54263;SDS011;40178;53.042;6.406;2024-02-26T02:35:44;33.35;;;17.50;;
54263;SDS011;40178;53.042;6.406;2024-02-26T02:38:10;35.35;;;18.85;;
54263;SDS011;40178;53.042;6.406;2024-02-26T02:40:36;37.15;;;18.00;;
54263;SDS011;40178;53.042;6.406;2024-02-26T02:43:02;32.72;;;17.50;;
54263;SDS011;40178;53.042;6.406;2024-02-26T02:45:28;35.65;;;17.58;;
54263;SDS011;40178;53.042;6.406;2024-02-26T02:47:53;32.60;;;16.95;;
54263;SDS011;40178;53.042;6.406;2024-02-26T02:50:19;29.50;;;16.13;;
54263;SDS011;40178;53.042;6.406;2024-02-26T02:52:45;32.88;;;17.70;;
54263;SDS011;40178;53.042;6.406;2024-02-26T02:55:10;31.40;;;15.93;;
54263;SDS011;40178;53.042;6.406;2024-02-26T02:57:37;28.75;;;16.45;;
54263;SDS011;40178;53.042;6.406;2024-02-26T03:00:07;29.23;;;15.27;;
54263;SDS011;40178;53.042;6.406;2024-02-26T03:02:33;30.85;;;14.70;;
54263;SDS011;40178;53.042;6.406;2024-02-26T03:05:01;28.45;;;14.90;;
54263;SDS011;40178;53.042;6.406;2024-02-26T03:07:27;31.00;;;16.02;;
54263;SDS011;40178;53.042;6.406;2024-02-26T03:09:53;30.02;;;14.82;;
54263;SDS011;40178;53.042;6.406;2024-02-26T03:12:18;27.42;;;14.73;;
54263;SDS011;40178;53.042;6.406;2024-02-26T03:14:44;26.35;;;14.20;;
54263;SDS011;40178;53.042;6.406;2024-02-26T03:17:10;25.15;;;13.48;;
54263;SDS011;40178;53.042;6.406;2024-02-26T03:19:35;24.65;;;13.68;;
54263;SDS011;40178;53.042;6.406;2024-02-26T03:22:01;24.50;;;12.88;;
54263;SDS011;40178;53.042;6.406;2024-02-26T03:24:27;24.38;;;13.55;;
54263;SDS011;40178;53.042;6.406;2024-02-26T03:26:53;24.77;;;13.10;;
54263;SDS011;40178;53.042;6.406;2024-02-26T03:29:19;21.80;;;12.30;;
54263;SDS011;40178;53.042;6.406;2024-02-26T03:31:44;24.75;;;12.18;;
54263;SDS011;40178;53.042;6.406;2024-02-26T03:34:10;22.60;;;12.60;;
54263;SDS011;40178;53.042;6.406;2024-02-26T03:36:37;25.05;;;13.25;;
54263;SDS011;40178;53.042;6.406;2024-02-26T03:39:03;22.52;;;12.18;;
54263;SDS011;40178;53.042;6.406;2024-02-26T03:41:35;19.52;;;11.85;;
54263;SDS011;40178;53.042;6.406;2024-02-26T03:44:01;22.25;;;11.77;;
54263;SDS011;40178;53.042;6.406;2024-02-26T03:46:27;24.85;;;12.57;;
54263;SDS011;40178;53.042;6.406;2024-02-26T03:48:53;22.45;;;12.10;;
54263;SDS011;40178;53.042;6.406;2024-02-26T03:51:19;21.02;;;10.93;;
54263;SDS011;40178;53.042;6.406;2024-02-26T03:53:45;19.55;;;10.70;;
54263;SDS011;40178;53.042;6.406;2024-02-26T03:56:13;18.48;;;10.93;;
54263;SDS011;40178;53.042;6.406;2024-02-26T03:58:39;20.00;;;11.65;;
54263;SDS011;40178;53.042;6.406;2024-02-26T04:01:08;22.52;;;11.95;;
54263;SDS011;40178;53.042;6.406;2024-02-26T04:03:34;18.42;;;10.23;;
54263;SDS011;40178;53.042;6.406;2024-02-26T04:06:00;22.13;;;10.38;;
54263;SDS011;40178;53.042;6.406;2024-02-26T04:08:26;17.95;;;10.27;;
54263;SDS011;40178;53.042;6.406;2024-02-26T04:10:52;18.35;;;10.27;;
54263;SDS011;40178;53.042;6.406;2024-02-26T04:13:17;18.30;;;9.93;;
54263;SDS011;40178;53.042;6.406;2024-02-26T04:15:43;16.65;;;8.95;;
54263;SDS011;40178;53.042;6.406;2024-02-26T04:18:09;17.40;;;9.18;;
54263;SDS011;40178;53.042;6.406;2024-02-26T04:20:34;16.58;;;8.55;;
54263;SDS011;40178;53.042;6.406;2024-02-26T04:23:00;20.02;;;8.93;;
54263;SDS011;40178;53.042;6.406;2024-02-26T04:25:26;17.05;;;8.85;;
54263;SDS011;40178;53.042;6.406;2024-02-26T04:27:52;16.35;;;8.52;;
54263;SDS011;40178;53.042;6.406;2024-02-26T04:30:17;16.85;;;7.43;;
54263;SDS011;40178;53.042;6.406;2024-02-26T04:32:43;14.18;;;7.22;;
54263;SDS011;40178;53.042;6.406;2024-02-26T04:35:08;13.75;;;7.30;;
54263;SDS011;40178;53.042;6.406;2024-02-26T04:37:34;14.90;;;7.13;;
54263;SDS011;40178;53.042;6.406;2024-02-26T04:40:00;14.30;;;6.43;;
54263;SDS011;40178;53.042;6.406;2024-02-26T04:42:26;14.23;;;6.95;;
54263;SDS011;40178;53.042;6.406;2024-02-26T04:44:52;13.15;;;7.15;;
54263;SDS011;40178;53.042;6.406;2024-02-26T04:47:19;13.25;;;5.70;;
54263;SDS011;40178;53.042;6.406;2024-02-26T04:49:47;11.98;;;5.97;;
54263;SDS011;40178;53.042;6.406;2024-02-26T04:52:14;14.40;;;6.78;;
54263;SDS011;40178;53.042;6.406;2024-02-26T04:54:39;13.43;;;6.32;;
54263;SDS011;40178;53.042;6.406;2024-02-26T04:57:05;12.27;;;5.85;;
54263;SDS011;40178;53.042;6.406;2024-02-26T04:59:31;10.00;;;5.13;;
54263;SDS011;40178;53.042;6.406;2024-02-26T05:01:56;12.63;;;6.05;;
54263;SDS011;40178;53.042;6.406;2024-02-26T05:04:22;10.82;;;5.05;;
54263;SDS011;40178;53.042;6.406;2024-02-26T05:06:47;9.70;;;5.00;;
54263;SDS011;40178;53.042;6.406;2024-02-26T05:09:13;9.32;;;4.82;;
54263;SDS011;40178;53.042;6.406;2024-02-26T05:11:38;11.20;;;4.95;;
54263;SDS011;40178;53.042;6.406;2024-02-26T05:14:04;9.77;;;4.90;;
54263;SDS011;40178;53.042;6.406;2024-02-26T05:16:30;9.57;;;4.90;;
54263;SDS011;40178;53.042;6.406;2024-02-26T05:18:56;9.20;;;4.28;;
54263;SDS011;40178;53.042;6.406;2024-02-26T05:21:22;9.95;;;4.30;;
54263;SDS011;40178;53.042;6.406;2024-02-26T05:23:48;11.73;;;5.32;;
54263;SDS011;40178;53.042;6.406;2024-02-26T05:26:20;9.13;;;4.72;;
54263;SDS011;40178;53.042;6.406;2024-02-26T05:28:46;9.55;;;4.78;;
54263;SDS011;40178;53.042;6.406;2024-02-26T05:31:12;9.77;;;4.88;;
54263;SDS011;40178;53.042;6.406;2024-02-26T05:33:39;7.90;;;4.22;;
54263;SDS011;40178;53.042;6.406;2024-02-26T05:36:04;10.27;;;4.35;;
54263;SDS011;40178;53.042;6.406;2024-02-26T05:38:30;8.60;;;4.22;;
54263;SDS011;40178;53.042;6.406;2024-02-26T05:40:59;8.50;;;4.28;;
54263;SDS011;40178;53.042;6.406;2024-02-26T05:43:25;10.02;;;4.03;;
54263;SDS011;40178;53.042;6.406;2024-02-26T05:45:51;7.72;;;4.03;;
54263;SDS011;40178;53.042;6.406;2024-02-26T05:48:17;8.10;;;4.43;;
54263;SDS011;40178;53.042;6.406;2024-02-26T05:50:44;8.65;;;4.38;;
54263;SDS011;40178;53.042;6.406;2024-02-26T05:53:10;10.07;;;4.35;;
54263;SDS011;40178;53.042;6.406;2024-02-26T05:55:36;7.63;;;3.92;;
54263;SDS011;40178;53.042;6.406;2024-02-26T05:58:02;9.75;;;4.75;;
54263;SDS011;40178;53.042;6.406;2024-02-26T06:00:28;10.02;;;3.58;;
54263;SDS011;40178;53.042;6.406;2024-02-26T06:02:53;8.00;;;3.70;;
54263;SDS011;40178;53.042;6.406;2024-02-26T06:05:19;9.02;;;3.90;;
54263;SDS011;40178;53.042;6.406;2024-02-26T06:07:45;7.63;;;4.22;;
54263;SDS011;40178;53.042;6.406;2024-02-26T06:10:10;8.00;;;3.95;;
54263;SDS011;40178;53.042;6.406;2024-02-26T06:12:38;9.73;;;4.70;;
54263;SDS011;40178;53.042;6.406;2024-02-26T06:15:04;7.78;;;3.50;;
54263;SDS011;40178;53.042;6.406;2024-02-26T06:17:30;7.90;;;3.75;;
54263;SDS011;40178;53.042;6.406;2024-02-26T06:19:55;8.60;;;4.15;;
54263;SDS011;40178;53.042;6.406;2024-02-26T06:22:21;11.15;;;4.93;;
54263;SDS011;40178;53.042;6.406;2024-02-26T06:24:47;7.82;;;4.13;;
54263;SDS011;40178;53.042;6.406;2024-02-26T06:27:12;6.50;;;3.30;;
54263;SDS011;40178;53.042;6.406;2024-02-26T06:29:38;8.40;;;4.07;;
54263;SDS011;40178;53.042;6.406;2024-02-26T06:32:04;7.57;;;4.20;;
54263;SDS011;40178;53.042;6.406;2024-02-26T06:34:30;8.55;;;4.25;;
54263;SDS011;40178;53.042;6.406;2024-02-26T06:36:56;6.78;;;3.72;;
54263;SDS011;40178;53.042;6.406;2024-02-26T06:39:21;7.43;;;3.92;;
54263;SDS011;40178;53.042;6.406;2024-02-26T06:41:47;9.07;;;4.50;;
54263;SDS011;40178;53.042;6.406;2024-02-26T06:44:13;9.23;;;4.15;;
54263;SDS011;40178;53.042;6.406;2024-02-26T06:46:39;8.75;;;3.95;;
54263;SDS011;40178;53.042;6.406;2024-02-26T06:49:05;7.50;;;3.35;;
54263;SDS011;40178;53.042;6.406;2024-02-26T06:51:30;7.90;;;4.35;;
54263;SDS011;40178;53.042;6.406;2024-02-26T06:53:56;7.60;;;3.75;;
54263;SDS011;40178;53.042;6.406;2024-02-26T06:56:21;7.43;;;3.97;;
54263;SDS011;40178;53.042;6.406;2024-02-26T06:58:47;8.52;;;3.70;;
54263;SDS011;40178;53.042;6.406;2024-02-26T07:01:13;7.80;;;4.50;;
54263;SDS011;40178;53.042;6.406;2024-02-26T07:03:41;7.05;;;3.83;;
54263;SDS011;40178;53.042;6.406;2024-02-26T07:06:08;6.95;;;3.65;;
54263;SDS011;40178;53.042;6.406;2024-02-26T07:08:33;6.78;;;3.97;;
54263;SDS011;40178;53.042;6.406;2024-02-26T07:10:59;7.75;;;4.38;;
54263;SDS011;40178;53.042;6.406;2024-02-26T07:13:25;8.73;;;4.68;;
54263;SDS011;40178;53.042;6.406;2024-02-26T07:15:50;6.95;;;4.13;;
54263;SDS011;40178;53.042;6.406;2024-02-26T07:18:16;8.48;;;4.60;;
54263;SDS011;40178;53.042;6.406;2024-02-26T07:20:41;7.47;;;4.00;;
54263;SDS011;40178;53.042;6.406;2024-02-26T07:23:07;7.63;;;3.92;;
54263;SDS011;40178;53.042;6.406;2024-02-26T07:25:33;8.68;;;4.70;;
54263;SDS011;40178;53.042;6.406;2024-02-26T07:27:58;7.97;;;3.88;;
54263;SDS011;40178;53.042;6.406;2024-02-26T07:30:24;8.23;;;4.38;;
54263;SDS011;40178;53.042;6.406;2024-02-26T07:32:50;9.02;;;3.95;;
54263;SDS011;40178;53.042;6.406;2024-02-26T07:35:15;8.50;;;4.50;;
54263;SDS011;40178;53.042;6.406;2024-02-26T07:37:42;7.72;;;4.30;;
54263;SDS011;40178;53.042;6.406;2024-02-26T07:40:08;7.32;;;4.10;;
54263;SDS011;40178;53.042;6.406;2024-02-26T07:42:34;7.72;;;4.30;;
54263;SDS011;40178;53.042;6.406;2024-02-26T07:45:00;7.07;;;3.38;;
54263;SDS011;40178;53.042;6.406;2024-02-26T07:47:25;7.47;;;3.72;;
54263;SDS011;40178;53.042;6.406;2024-02-26T07:49:51;9.18;;;4.18;;
54263;SDS011;40178;53.042;6.406;2024-02-26T07:52:16;6.80;;;3.67;;
54263;SDS011;40178;53.042;6.406;2024-02-26T07:54:42;7.75;;;4.60;;
54263;SDS011;40178;53.042;6.406;2024-02-26T07:57:08;6.85;;;3.97;;
54263;SDS011;40178;53.042;6.406;2024-02-26T07:59:33;8.13;;;4.35;;
54263;SDS011;40178;53.042;6.406;2024-02-26T08:01:59;6.95;;;4.10;;
54263;SDS011;40178;53.042;6.406;2024-02-26T08:04:25;10.13;;;4.95;;
54263;SDS011;40178;53.042;6.406;2024-02-26T08:06:51;7.57;;;4.03;;
54263;SDS011;40178;53.042;6.406;2024-02-26T08:09:17;5.82;;;3.42;;
54263;SDS011;40178;53.042;6.406;2024-02-26T08:11:43;7.53;;;4.05;;
54263;SDS011;40178;53.042;6.406;2024-02-26T08:14:08;8.57;;;4.50;;
54263;SDS011;40178;53.042;6.406;2024-02-26T08:16:34;8.23;;;4.20;;
54263;SDS011;40178;53.042;6.406;2024-02-26T08:18:59;7.50;;;3.92;;
54263;SDS011;40178;53.042;6.406;2024-02-26T08:21:25;7.70;;;4.78;;
54263;SDS011;40178;53.042;6.406;2024-02-26T08:23:51;7.38;;;4.57;;
54263;SDS011;40178;53.042;6.406;2024-02-26T08:26:16;7.07;;;4.28;;
54263;SDS011;40178;53.042;6.406;2024-02-26T08:28:42;6.80;;;4.20;;
54263;SDS011;40178;53.042;6.406;2024-02-26T08:31:07;8.52;;;4.45;;
54263;SDS011;40178;53.042;6.406;2024-02-26T08:33:33;7.55;;;4.70;;
54263;SDS011;40178;53.042;6.406;2024-02-26T08:36:03;6.53;;;4.82;;
54263;SDS011;40178;53.042;6.406;2024-02-26T08:38:32;6.95;;;4.50;;
54263;SDS011;40178;53.042;6.406;2024-02-26T08:41:00;10.13;;;5.07;;
54263;SDS011;40178;53.042;6.406;2024-02-26T08:43:27;8.18;;;4.70;;
54263;SDS011;40178;53.042;6.406;2024-02-26T08:45:53;8.02;;;4.20;;
54263;SDS011;40178;53.042;6.406;2024-02-26T08:48:19;7.50;;;4.55;;
54263;SDS011;40178;53.042;6.406;2024-02-26T08:50:44;7.28;;;4.22;;
54263;SDS011;40178;53.042;6.406;2024-02-26T08:53:10;8.05;;;4.65;;
54263;SDS011;40178;53.042;6.406;2024-02-26T08:55:35;6.05;;;3.75;;
54263;SDS011;40178;53.042;6.406;2024-02-26T08:58:01;6.95;;;4.65;;
54263;SDS011;40178;53.042;6.406;2024-02-26T09:00:27;7.07;;;4.00;;
54263;SDS011;40178;53.042;6.406;2024-02-26T09:02:52;6.70;;;5.15;;
54263;SDS011;40178;53.042;6.406;2024-02-26T09:05:18;6.68;;;4.78;;
54263;SDS011;40178;53.042;6.406;2024-02-26T09:07:44;6.30;;;4.25;;
54263;SDS011;40178;53.042;6.406;2024-02-26T09:10:09;6.05;;;4.18;;
54263;SDS011;40178;53.042;6.406;2024-02-26T09:12:35;7.28;;;4.57;;
54263;SDS011;40178;53.042;6.406;2024-02-26T09:15:05;7.35;;;4.40;;
54263;SDS011;40178;53.042;6.406;2024-02-26T09:17:32;5.97;;;4.13;;
54263;SDS011;40178;53.042;6.406;2024-02-26T09:19:58;6.20;;;4.82;;
54263;SDS011;40178;53.042;6.406;2024-02-26T09:22:23;6.57;;;4.80;;
54263;SDS011;40178;53.042;6.406;2024-02-26T09:24:49;7.32;;;4.47;;
54263;SDS011;40178;53.042;6.406;2024-02-26T09:27:16;8.05;;;4.40;;
54263;SDS011;40178;53.042;6.406;2024-02-26T09:29:42;5.68;;;3.97;;
54263;SDS011;40178;53.042;6.406;2024-02-26T09:32:08;6.25;;;5.00;;
54263;SDS011;40178;53.042;6.406;2024-02-26T09:34:33;6.05;;;4.68;;
54263;SDS011;40178;53.042;6.406;2024-02-26T09:36:59;6.35;;;3.80;;
54263;SDS011;40178;53.042;6.406;2024-02-26T09:39:25;6.05;;;4.80;;
54263;SDS011;40178;53.042;6.406;2024-02-26T09:41:52;6.38;;;4.97;;
54263;SDS011;40178;53.042;6.406;2024-02-26T09:44:19;5.97;;;4.63;;
54263;SDS011;40178;53.042;6.406;2024-02-26T09:46:48;7.22;;;4.60;;
54263;SDS011;40178;53.042;6.406;2024-02-26T09:49:16;5.88;;;4.32;;
54263;SDS011;40178;53.042;6.406;2024-02-26T09:51:44;7.15;;;3.78;;
54263;SDS011;40178;53.042;6.406;2024-02-26T09:54:12;5.20;;;3.60;;
54263;SDS011;40178;53.042;6.406;2024-02-26T09:56:39;6.07;;;3.83;;
54263;SDS011;40178;53.042;6.406;2024-02-26T09:59:10;5.85;;;3.78;;
54263;SDS011;40178;53.042;6.406;2024-02-26T10:01:39;5.97;;;3.70;;
54263;SDS011;40178;53.042;6.406;2024-02-26T10:04:07;5.18;;;3.35;;
54263;SDS011;40178;53.042;6.406;2024-02-26T10:06:36;7.57;;;4.15;;
54263;SDS011;40178;53.042;6.406;2024-02-26T10:09:02;6.18;;;4.25;;
54263;SDS011;40178;53.042;6.406;2024-02-26T10:11:31;6.88;;;4.70;;
54263;SDS011;40178;53.042;6.406;2024-02-26T10:13:57;6.13;;;4.65;;
54263;SDS011;40178;53.042;6.406;2024-02-26T10:16:24;5.47;;;3.60;;
54263;SDS011;40178;53.042;6.406;2024-02-26T10:18:51;6.20;;;3.70;;
54263;SDS011;40178;53.042;6.406;2024-02-26T10:21:21;7.10;;;4.05;;
54263;SDS011;40178;53.042;6.406;2024-02-26T10:23:47;7.28;;;4.60;;
54263;SDS011;40178;53.042;6.406;2024-02-26T10:26:16;6.50;;;4.15;;
54263;SDS011;40178;53.042;6.406;2024-02-26T10:28:42;6.22;;;3.88;;
54263;SDS011;40178;53.042;6.406;2024-02-26T10:31:09;5.93;;;3.58;;
54263;SDS011;40178;53.042;6.406;2024-02-26T10:33:36;5.78;;;3.40;;
54263;SDS011;40178;53.042;6.406;2024-02-26T10:36:03;5.82;;;3.53;;
54263;SDS011;40178;53.042;6.406;2024-02-26T10:38:33;4.75;;;3.05;;
54263;SDS011;40178;53.042;6.406;2024-02-26T10:41:01;5.78;;;3.65;;
54263;SDS011;40178;53.042;6.406;2024-02-26T10:43:28;4.85;;;2.58;;
54263;SDS011;40178;53.042;6.406;2024-02-26T10:45:57;5.03;;;2.72;;
54263;SDS011;40178;53.042;6.406;2024-02-26T10:48:23;5.82;;;2.95;;
54263;SDS011;40178;53.042;6.406;2024-02-26T10:50:48;5.85;;;2.60;;
54263;SDS011;40178;53.042;6.406;2024-02-26T10:53:16;4.90;;;2.53;;
54263;SDS011;40178;53.042;6.406;2024-02-26T10:55:51;4.40;;;2.95;;
54263;SDS011;40178;53.042;6.406;2024-02-26T10:58:21;4.88;;;3.00;;
54263;SDS011;40178;53.042;6.406;2024-02-26T11:00:49;5.43;;;2.83;;
54263;SDS011;40178;53.042;6.406;2024-02-26T11:03:15;4.65;;;2.58;;
54263;SDS011;40178;53.042;6.406;2024-02-26T11:05:44;5.03;;;2.45;;
54263;SDS011;40178;53.042;6.406;2024-02-26T11:08:15;4.45;;;2.35;;
54263;SDS011;40178;53.042;6.406;2024-02-26T11:10:43;4.10;;;2.50;;
54263;SDS011;40178;53.042;6.406;2024-02-26T11:13:12;4.55;;;2.55;;
54263;SDS011;40178;53.042;6.406;2024-02-26T11:15:39;5.43;;;2.45;;
54263;SDS011;40178;53.042;6.406;2024-02-26T11:18:05;4.72;;;2.80;;
54263;SDS011;40178;53.042;6.406;2024-02-26T11:20:32;5.50;;;3.20;;
54263;SDS011;40178;53.042;6.406;2024-02-26T11:22:59;4.88;;;3.60;;
54263;SDS011;40178;53.042;6.406;2024-02-26T11:25:25;5.40;;;3.25;;
54263;SDS011;40178;53.042;6.406;2024-02-26T11:27:52;4.53;;;3.08;;
54263;SDS011;40178;53.042;6.406;2024-02-26T11:30:23;4.97;;;3.22;;
54263;SDS011;40178;53.042;6.406;2024-02-26T11:32:50;5.15;;;3.13;;
54263;SDS011;40178;53.042;6.406;2024-02-26T11:35:17;4.97;;;2.88;;
54263;SDS011;40178;53.042;6.406;2024-02-26T11:37:53;5.40;;;2.92;;
54263;SDS011;40178;53.042;6.406;2024-02-26T11:40:21;4.22;;;2.38;;
54263;SDS011;40178;53.042;6.406;2024-02-26T11:42:48;6.75;;;2.70;;
54263;SDS011;40178;53.042;6.406;2024-02-26T11:48:13;4.70;;;2.17;;
54263;SDS011;40178;53.042;6.406;2024-02-26T11:50:41;3.92;;;2.10;;
54263;SDS011;40178;53.042;6.406;2024-02-26T11:53:20;4.60;;;1.98;;
54263;SDS011;40178;53.042;6.406;2024-02-26T11:56:12;4.63;;;2.30;;
54263;SDS011;40178;53.042;6.406;2024-02-26T11:58:58;4.30;;;2.90;;
54263;SDS011;40178;53.042;6.406;2024-02-26T12:04:04;5.40;;;2.88;;
54263;SDS011;40178;53.042;6.406;2024-02-26T12:06:31;5.00;;;2.72;;
54263;SDS011;40178;53.042;6.406;2024-02-26T12:09:07;4.78;;;2.42;;
54263;SDS011;40178;53.042;6.406;2024-02-26T12:11:36;4.55;;;2.60;;
54263;SDS011;40178;53.042;6.406;2024-02-26T12:14:03;4.93;;;2.45;;
54263;SDS011;40178;53.042;6.406;2024-02-26T12:16:37;4.70;;;2.45;;
54263;SDS011;40178;53.042;6.406;2024-02-26T12:19:04;4.32;;;2.63;;
54263;SDS011;40178;53.042;6.406;2024-02-26T12:21:32;5.38;;;2.28;;
54263;SDS011;40178;53.042;6.406;2024-02-26T12:24:09;5.90;;;3.10;;
54263;SDS011;40178;53.042;6.406;2024-02-26T12:26:40;4.90;;;2.58;;
54263;SDS011;40178;53.042;6.406;2024-02-26T12:29:06;6.05;;;2.95;;
54263;SDS011;40178;53.042;6.406;2024-02-26T12:31:33;7.13;;;3.53;;
54263;SDS011;40178;53.042;6.406;2024-02-26T12:33:59;6.60;;;3.30;;
54263;SDS011;40178;53.042;6.406;2024-02-26T12:36:26;6.38;;;3.22;;
54263;SDS011;40178;53.042;6.406;2024-02-26T12:38:52;7.07;;;3.63;;
54263;SDS011;40178;53.042;6.406;2024-02-26T12:41:17;7.18;;;3.70;;
54263;SDS011;40178;53.042;6.406;2024-02-26T12:43:43;7.05;;;3.42;;
54263;SDS011;40178;53.042;6.406;2024-02-26T12:46:09;6.88;;;3.60;;
54263;SDS011;40178;53.042;6.406;2024-02-26T12:48:36;7.25;;;3.90;;
54263;SDS011;40178;53.042;6.406;2024-02-26T12:51:01;5.95;;;3.63;;
54263;SDS011;40178;53.042;6.406;2024-02-26T12:53:27;6.95;;;3.97;;
54263;SDS011;40178;53.042;6.406;2024-02-26T12:55:56;6.93;;;3.88;;
54263;SDS011;40178;53.042;6.406;2024-02-26T12:58:22;7.80;;;4.07;;
54263;SDS011;40178;53.042;6.406;2024-02-26T13:00:53;7.40;;;4.05;;
54263;SDS011;40178;53.042;6.406;2024-02-26T13:03:19;7.30;;;4.40;;
54263;SDS011;40178;53.042;6.406;2024-02-26T13:05:47;7.78;;;4.45;;
54263;SDS011;40178;53.042;6.406;2024-02-26T13:08:19;7.20;;;4.00;;
54263;SDS011;40178;53.042;6.406;2024-02-26T13:10:46;6.80;;;3.97;;
54263;SDS011;40178;53.042;6.406;2024-02-26T13:13:14;8.63;;;4.20;;
54263;SDS011;40178;53.042;6.406;2024-02-26T13:15:41;10.05;;;4.95;;
54263;SDS011;40178;53.042;6.406;2024-02-26T13:18:10;7.63;;;4.10;;
54263;SDS011;40178;53.042;6.406;2024-02-26T13:20:36;8.05;;;4.70;;
54263;SDS011;40178;53.042;6.406;2024-02-26T13:23:02;8.43;;;4.57;;
54263;SDS011;40178;53.042;6.406;2024-02-26T13:25:28;8.93;;;4.82;;
54263;SDS011;40178;53.042;6.406;2024-02-26T13:28:04;8.25;;;4.95;;
54263;SDS011;40178;53.042;6.406;2024-02-26T13:30:41;8.40;;;4.53;;
54263;SDS011;40178;53.042;6.406;2024-02-26T13:33:07;8.73;;;4.90;;
54263;SDS011;40178;53.042;6.406;2024-02-26T13:35:34;8.73;;;4.82;;
54263;SDS011;40178;53.042;6.406;2024-02-26T13:38:01;9.73;;;5.78;;
54263;SDS011;40178;53.042;6.406;2024-02-26T13:40:27;8.00;;;4.80;;
54263;SDS011;40178;53.042;6.406;2024-02-26T13:42:54;9.40;;;5.05;;
54263;SDS011;40178;53.042;6.406;2024-02-26T13:45:19;9.23;;;5.05;;
54263;SDS011;40178;53.042;6.406;2024-02-26T13:47:45;10.30;;;4.97;;
54263;SDS011;40178;53.042;6.406;2024-02-26T13:50:11;9.27;;;5.57;;
54263;SDS011;40178;53.042;6.406;2024-02-26T13:52:36;8.75;;;5.20;;
54263;SDS011;40178;53.042;6.406;2024-02-26T13:55:02;7.45;;;4.60;;
54263;SDS011;40178;53.042;6.406;2024-02-26T13:57:28;10.25;;;5.53;;
54263;SDS011;40178;53.042;6.406;2024-02-26T13:59:54;7.97;;;4.82;;
54263;SDS011;40178;53.042;6.406;2024-02-26T14:02:20;7.90;;;4.95;;
54263;SDS011;40178;53.042;6.406;2024-02-26T14:04:46;10.48;;;5.53;;
54263;SDS011;40178;53.042;6.406;2024-02-26T14:07:12;9.75;;;5.53;;
54263;SDS011;40178;53.042;6.406;2024-02-26T14:09:38;8.85;;;4.38;;
54263;SDS011;40178;53.042;6.406;2024-02-26T14:12:04;8.32;;;4.38;;
54263;SDS011;40178;53.042;6.406;2024-02-26T14:14:30;9.00;;;5.20;;
54263;SDS011;40178;53.042;6.406;2024-02-26T14:16:58;9.20;;;4.88;;
54263;SDS011;40178;53.042;6.406;2024-02-26T14:19:24;8.38;;;4.95;;
54263;SDS011;40178;53.042;6.406;2024-02-26T14:21:50;7.65;;;4.05;;
54263;SDS011;40178;53.042;6.406;2024-02-26T14:24:16;9.20;;;5.75;;
54263;SDS011;40178;53.042;6.406;2024-02-26T14:26:42;9.95;;;6.05;;
54263;SDS011;40178;53.042;6.406;2024-02-26T14:29:07;7.78;;;4.95;;
54263;SDS011;40178;53.042;6.406;2024-02-26T14:31:33;11.93;;;5.60;;
54263;SDS011;40178;53.042;6.406;2024-02-26T14:33:59;9.35;;;5.38;;
54263;SDS011;40178;53.042;6.406;2024-02-26T14:36:25;11.30;;;5.63;;
54263;SDS011;40178;53.042;6.406;2024-02-26T14:38:51;9.60;;;5.70;;
54263;SDS011;40178;53.042;6.406;2024-02-26T14:41:16;11.40;;;5.53;;